KLM777 EDDM-EDDF
Flight info
| Callsign | KLM777 |
|---|---|
| Flight time | 0h 41m |
| Altitude | 24000 |
| Route | GIVMI1N GIVMI Y101 ERNAS T161 DEBHI DEBHI1B |
| Aircraft | A35K/H-SDE2E3GHIJ3J4J5LM1ORWXY/LB1D1 |
Departure
| Time | 2026-04-16 10:49 |
|---|---|
| Airport | Munich Airport (EDDM) |
Arrival
| Time | 2026-04-16 11:30 |
|---|---|
| Airport | Frankfurt Main Airport (EDDF) |
| Time | Latitude | Longitude | Altitude | Speed | Heading |
|---|---|---|---|---|---|
| 2026-04-16 10:15 | 48.35353 | 11.79333 | 1473 ft | 0 kts | 263° |
| 2026-04-16 10:36 | 48.35354 | 11.79359 | 1461 ft | 3 kts | 281° |
| 2026-04-16 10:36 | 48.35349 | 11.79383 | 1465 ft | 2 kts | 291° |
| 2026-04-16 10:37 | 48.35343 | 11.79408 | 1462 ft | 3 kts | 279° |
| 2026-04-16 10:37 | 48.35342 | 11.79427 | 1464 ft | 0 kts | 268° |
| 2026-04-16 10:37 | 48.35342 | 11.79441 | 1461 ft | 3 kts | 257° |
| 2026-04-16 10:37 | 48.35345 | 11.79467 | 1464 ft | 3 kts | 275° |
| 2026-04-16 10:38 | 48.35341 | 11.79494 | 1461 ft | 3 kts | 294° |
| 2026-04-16 10:38 | 48.35336 | 11.79508 | 1461 ft | 0 kts | 306° |
| 2026-04-16 10:39 | 48.35338 | 11.79506 | 1461 ft | 1 kts | 311° |
| 2026-04-16 10:39 | 48.35371 | 11.79480 | 1461 ft | 7 kts | 339° |
| 2026-04-16 10:39 | 48.35421 | 11.79463 | 1463 ft | 8 kts | 351° |
| 2026-04-16 10:40 | 48.35474 | 11.79453 | 1465 ft | 9 kts | 354° |
| 2026-04-16 10:40 | 48.35543 | 11.79444 | 1465 ft | 11 kts | 353° |
| 2026-04-16 10:40 | 48.35621 | 11.79428 | 1468 ft | 12 kts | 352° |
| 2026-04-16 10:40 | 48.35707 | 11.79411 | 1468 ft | 13 kts | 352° |
| 2026-04-16 10:41 | 48.35803 | 11.79392 | 1466 ft | 14 kts | 355° |
| 2026-04-16 10:41 | 48.35896 | 11.79369 | 1464 ft | 13 kts | 343° |
| 2026-04-16 10:41 | 48.35987 | 11.79336 | 1464 ft | 14 kts | 350° |
| 2026-04-16 10:41 | 48.36074 | 11.79344 | 1466 ft | 7 kts | 35° |
| 2026-04-16 10:42 | 48.36098 | 11.79401 | 1469 ft | 7 kts | 60° |
| 2026-04-16 10:42 | 48.36134 | 11.79452 | 1466 ft | 8 kts | 28° |
| 2026-04-16 10:42 | 48.36186 | 11.79487 | 1468 ft | 8 kts | 36° |
| 2026-04-16 10:42 | 48.36212 | 11.79553 | 1465 ft | 8 kts | 70° |
| 2026-04-16 10:43 | 48.36225 | 11.79638 | 1470 ft | 9 kts | 80° |
| 2026-04-16 10:43 | 48.36235 | 11.79741 | 1465 ft | 11 kts | 83° |
| 2026-04-16 10:43 | 48.36243 | 11.79861 | 1471 ft | 12 kts | 84° |
| 2026-04-16 10:43 | 48.36253 | 11.79996 | 1468 ft | 14 kts | 83° |
| 2026-04-16 10:44 | 48.36264 | 11.80148 | 1470 ft | 15 kts | 83° |
| 2026-04-16 10:44 | 48.36277 | 11.80315 | 1466 ft | 17 kts | 83° |
| 2026-04-16 10:44 | 48.36292 | 11.80497 | 1466 ft | 18 kts | 83° |
| 2026-04-16 10:44 | 48.36307 | 11.80689 | 1465 ft | 19 kts | 83° |
| 2026-04-16 10:45 | 48.36323 | 11.80898 | 1463 ft | 21 kts | 84° |
| 2026-04-16 10:45 | 48.36340 | 11.81120 | 1466 ft | 22 kts | 83° |
| 2026-04-16 10:45 | 48.36359 | 11.81353 | 1469 ft | 23 kts | 83° |
| 2026-04-16 10:45 | 48.36378 | 11.81599 | 1465 ft | 24 kts | 83° |
| 2026-04-16 10:46 | 48.36396 | 11.81856 | 1470 ft | 25 kts | 89° |
| 2026-04-16 10:46 | 48.36412 | 11.82100 | 1461 ft | 20 kts | 56° |
| 2026-04-16 10:46 | 48.36482 | 11.82136 | 1461 ft | 9 kts | 359° |
| 2026-04-16 10:46 | 48.36551 | 11.82126 | 1463 ft | 10 kts | 349° |
| 2026-04-16 10:47 | 48.36617 | 11.82086 | 1463 ft | 10 kts | 326° |
| 2026-04-16 10:47 | 48.36658 | 11.82007 | 1461 ft | 10 kts | 296° |
| 2026-04-16 10:47 | 48.36670 | 11.81909 | 1469 ft | 10 kts | 270° |
| 2026-04-16 10:47 | 48.36668 | 11.81839 | 1462 ft | 0 kts | 266° |
| 2026-04-16 10:48 | 48.36667 | 11.81810 | 1464 ft | 19 kts | 266° |
| 2026-04-16 10:48 | 48.36631 | 11.81280 | 1465 ft | 81 kts | 262° |
| 2026-04-16 10:48 | 48.36545 | 11.80177 | 1470 ft | 132 kts | 263° |
| 2026-04-16 10:48 | 48.36428 | 11.78581 | 1528 ft | 169 kts | 265° |
| 2026-04-16 10:49 | 48.36283 | 11.76951 | 2424 ft | 151 kts | 262° |
| 2026-04-16 10:49 | 48.36131 | 11.75340 | 2844 ft | 165 kts | 262° |
| 2026-04-16 10:49 | 48.35957 | 11.73503 | 3029 ft | 190 kts | 262° |
| 2026-04-16 10:49 | 48.35758 | 11.71425 | 3345 ft | 212 kts | 262° |
| 2026-04-16 10:50 | 48.35533 | 11.69132 | 3731 ft | 229 kts | 261° |
| 2026-04-16 10:50 | 48.35300 | 11.66724 | 4325 ft | 236 kts | 261° |
| 2026-04-16 10:50 | 48.35063 | 11.64258 | 4989 ft | 240 kts | 261° |
| 2026-04-16 10:50 | 48.34823 | 11.61761 | 5646 ft | 242 kts | 261° |
| 2026-04-16 10:51 | 48.34581 | 11.59242 | 6304 ft | 245 kts | 261° |
| 2026-04-16 10:51 | 48.34337 | 11.56699 | 6951 ft | 246 kts | 261° |
| 2026-04-16 10:51 | 48.34228 | 11.54077 | 7385 ft | 260 kts | 273° |
| 2026-04-16 10:51 | 48.34756 | 11.51399 | 7667 ft | 277 kts | 301° |
| 2026-04-16 10:52 | 48.36123 | 11.49350 | 8210 ft | 282 kts | 330° |
| 2026-04-16 10:52 | 48.37905 | 11.48096 | 8881 ft | 284 kts | 337° |
| 2026-04-16 10:52 | 48.39730 | 11.46983 | 9541 ft | 287 kts | 337° |
| 2026-04-16 10:52 | 48.41591 | 11.45846 | 10204 ft | 290 kts | 337° |
| 2026-04-16 10:53 | 48.43461 | 11.44679 | 10805 ft | 292 kts | 336° |
| 2026-04-16 10:53 | 48.45347 | 11.43503 | 11397 ft | 295 kts | 339° |
| 2026-04-16 10:53 | 48.47356 | 11.42683 | 11855 ft | 305 kts | 347° |
| 2026-04-16 10:53 | 48.49488 | 11.42066 | 12133 ft | 319 kts | 349° |
| 2026-04-16 10:54 | 48.51723 | 11.41466 | 12409 ft | 333 kts | 349° |
| 2026-04-16 10:54 | 48.54049 | 11.40845 | 12671 ft | 346 kts | 349° |
| 2026-04-16 10:54 | 48.56457 | 11.40203 | 12924 ft | 358 kts | 349° |
| 2026-04-16 10:54 | 48.58103 | 11.39763 | 13089 ft | 365 kts | 349° |
| 2026-04-16 10:55 | 48.60635 | 11.39080 | 13430 ft | 372 kts | 349° |
| 2026-04-16 10:55 | 48.64043 | 11.38151 | 14032 ft | 378 kts | 349° |
| 2026-04-16 10:55 | 48.66638 | 11.37439 | 14469 ft | 380 kts | 349° |
| 2026-04-16 10:55 | 48.68400 | 11.36914 | 14769 ft | 381 kts | 346° |
| 2026-04-16 10:56 | 48.71669 | 11.34986 | 15380 ft | 383 kts | 332° |
| 2026-04-16 10:56 | 48.73240 | 11.33646 | 15700 ft | 384 kts | 329° |
| 2026-04-16 10:56 | 48.75472 | 11.31497 | 16144 ft | 386 kts | 326° |
| 2026-04-16 10:56 | 48.77696 | 11.29186 | 16610 ft | 388 kts | 325° |
| 2026-04-16 10:57 | 48.79912 | 11.26820 | 17047 ft | 390 kts | 325° |
| 2026-04-16 10:57 | 48.82149 | 11.24436 | 17496 ft | 392 kts | 325° |
| 2026-04-16 10:57 | 48.84339 | 11.21941 | 17919 ft | 395 kts | 321° |
| 2026-04-16 10:57 | 48.86410 | 11.19261 | 18356 ft | 397 kts | 319° |
| 2026-04-16 10:58 | 48.88511 | 11.16424 | 18739 ft | 400 kts | 319° |
| 2026-04-16 10:58 | 48.90545 | 11.13605 | 19085 ft | 403 kts | 318° |
| 2026-04-16 10:58 | 48.92610 | 11.10707 | 19437 ft | 405 kts | 318° |
| 2026-04-16 10:58 | 48.94687 | 11.07779 | 19796 ft | 407 kts | 318° |
| 2026-04-16 10:59 | 48.96775 | 11.04838 | 20151 ft | 409 kts | 318° |
| 2026-04-16 10:59 | 48.98880 | 11.01875 | 20509 ft | 411 kts | 318° |
| 2026-04-16 10:59 | 49.00986 | 10.98914 | 20861 ft | 413 kts | 318° |
| 2026-04-16 10:59 | 49.03104 | 10.95935 | 21211 ft | 415 kts | 318° |
| 2026-04-16 11:00 | 49.05209 | 10.92976 | 21563 ft | 417 kts | 318° |
| 2026-04-16 11:00 | 49.07342 | 10.89973 | 21906 ft | 419 kts | 318° |
| 2026-04-16 11:00 | 49.09489 | 10.86955 | 22247 ft | 420 kts | 319° |
| 2026-04-16 11:00 | 49.11640 | 10.83920 | 22565 ft | 422 kts | 319° |
| 2026-04-16 11:01 | 49.13802 | 10.80862 | 22906 ft | 424 kts | 318° |
| 2026-04-16 11:01 | 49.15970 | 10.77788 | 23245 ft | 426 kts | 318° |
| 2026-04-16 11:01 | 49.18151 | 10.74692 | 23563 ft | 428 kts | 318° |
| 2026-04-16 11:01 | 49.20322 | 10.71559 | 23878 ft | 430 kts | 317° |
| 2026-04-16 11:02 | 49.22448 | 10.68327 | 24152 ft | 431 kts | 316° |
| 2026-04-16 11:02 | 49.24530 | 10.65057 | 24245 ft | 440 kts | 315° |
| 2026-04-16 11:02 | 49.26720 | 10.61571 | 24256 ft | 453 kts | 315° |
| 2026-04-16 11:02 | 49.28909 | 10.58070 | 24259 ft | 456 kts | 315° |
| 2026-04-16 11:03 | 49.31106 | 10.54563 | 24257 ft | 456 kts | 315° |
| 2026-04-16 11:03 | 49.33280 | 10.51101 | 24256 ft | 456 kts | 315° |
| 2026-04-16 11:03 | 49.37427 | 10.43750 | 24261 ft | 456 kts | 307° |
| 2026-04-16 11:04 | 49.39262 | 10.39776 | 24254 ft | 456 kts | 306° |
| 2026-04-16 11:04 | 49.41076 | 10.35774 | 24251 ft | 457 kts | 306° |
| 2026-04-16 11:04 | 49.42883 | 10.31786 | 24244 ft | 456 kts | 306° |
| 2026-04-16 11:04 | 49.44694 | 10.27792 | 24243 ft | 456 kts | 306° |
| 2026-04-16 11:05 | 49.46513 | 10.23782 | 24246 ft | 456 kts | 306° |
| 2026-04-16 11:05 | 49.48327 | 10.19781 | 24243 ft | 456 kts | 306° |
| 2026-04-16 11:05 | 49.50117 | 10.15831 | 24237 ft | 456 kts | 306° |
| 2026-04-16 11:05 | 49.51927 | 10.11832 | 24234 ft | 455 kts | 306° |
| 2026-04-16 11:06 | 49.53731 | 10.07838 | 24239 ft | 455 kts | 306° |
| 2026-04-16 11:06 | 49.55537 | 10.03835 | 24241 ft | 455 kts | 306° |
| 2026-04-16 11:06 | 49.57343 | 9.99828 | 24246 ft | 454 kts | 305° |
| 2026-04-16 11:06 | 49.59143 | 9.95826 | 24238 ft | 454 kts | 305° |
| 2026-04-16 11:07 | 49.60945 | 9.91816 | 24239 ft | 454 kts | 305° |
| 2026-04-16 11:07 | 49.62739 | 9.87816 | 24237 ft | 454 kts | 305° |
| 2026-04-16 11:07 | 49.64534 | 9.83806 | 24243 ft | 454 kts | 305° |
| 2026-04-16 11:07 | 49.66325 | 9.79797 | 24237 ft | 453 kts | 305° |
| 2026-04-16 11:08 | 49.68107 | 9.75805 | 23990 ft | 447 kts | 305° |
| 2026-04-16 11:08 | 49.69870 | 9.71852 | 23041 ft | 449 kts | 304° |
| 2026-04-16 11:08 | 49.71645 | 9.67864 | 22205 ft | 450 kts | 304° |
| 2026-04-16 11:08 | 49.73403 | 9.63907 | 21561 ft | 444 kts | 304° |
| 2026-04-16 11:09 | 49.75149 | 9.59968 | 20869 ft | 441 kts | 304° |
| 2026-04-16 11:09 | 49.76855 | 9.56115 | 20197 ft | 438 kts | 304° |
| 2026-04-16 11:09 | 49.78570 | 9.52238 | 19523 ft | 434 kts | 304° |
| 2026-04-16 11:09 | 49.80268 | 9.48395 | 18845 ft | 432 kts | 304° |
| 2026-04-16 11:10 | 49.81960 | 9.44562 | 18175 ft | 428 kts | 304° |
| 2026-04-16 11:10 | 49.83625 | 9.40780 | 17518 ft | 423 kts | 303° |
| 2026-04-16 11:10 | 49.85266 | 9.37025 | 16858 ft | 418 kts | 302° |
| 2026-04-16 11:10 | 49.86562 | 9.33036 | 16223 ft | 413 kts | 290° |
| 2026-04-16 11:11 | 49.87449 | 9.28825 | 15565 ft | 409 kts | 286° |
| 2026-04-16 11:11 | 49.88240 | 9.24616 | 14959 ft | 404 kts | 285° |
| 2026-04-16 11:11 | 49.88997 | 9.20545 | 14685 ft | 391 kts | 285° |
| 2026-04-16 11:11 | 49.89748 | 9.16538 | 14455 ft | 379 kts | 286° |
| 2026-04-16 11:12 | 49.90477 | 9.12671 | 14214 ft | 367 kts | 286° |
| 2026-04-16 11:12 | 49.91186 | 9.08920 | 13961 ft | 356 kts | 286° |
| 2026-04-16 11:12 | 49.91866 | 9.05324 | 13707 ft | 346 kts | 286° |
| 2026-04-16 11:12 | 49.92533 | 9.01791 | 13483 ft | 335 kts | 285° |
| 2026-04-16 11:13 | 49.93177 | 8.98369 | 13273 ft | 324 kts | 285° |
| 2026-04-16 11:13 | 49.93944 | 8.95132 | 13042 ft | 315 kts | 298° |
| 2026-04-16 11:13 | 49.95365 | 8.92624 | 12806 ft | 309 kts | 324° |
| 2026-04-16 11:13 | 49.97306 | 8.91417 | 12541 ft | 305 kts | 349° |
| 2026-04-16 11:14 | 49.99423 | 8.91297 | 12121 ft | 306 kts | 1° |
| 2026-04-16 11:14 | 50.01500 | 8.91984 | 11707 ft | 307 kts | 22° |
| 2026-04-16 11:14 | 50.03217 | 8.93909 | 11311 ft | 307 kts | 49° |
| 2026-04-16 11:14 | 50.04268 | 8.96774 | 10944 ft | 305 kts | 67° |
| 2026-04-16 11:15 | 50.05004 | 8.99869 | 10579 ft | 304 kts | 70° |
| 2026-04-16 11:15 | 50.05698 | 9.02968 | 10224 ft | 302 kts | 70° |
| 2026-04-16 11:15 | 50.06392 | 9.06041 | 9845 ft | 300 kts | 70° |
| 2026-04-16 11:15 | 50.07092 | 9.09102 | 9421 ft | 299 kts | 70° |
| 2026-04-16 11:16 | 50.07789 | 9.12126 | 9043 ft | 296 kts | 70° |
| 2026-04-16 11:16 | 50.08485 | 9.15137 | 8655 ft | 294 kts | 70° |
| 2026-04-16 11:16 | 50.09174 | 9.18115 | 8400 ft | 289 kts | 70° |
| 2026-04-16 11:16 | 50.09845 | 9.21017 | 8278 ft | 287 kts | 70° |
| 2026-04-16 11:17 | 50.10533 | 9.23982 | 8177 ft | 287 kts | 70° |
| 2026-04-16 11:17 | 50.11202 | 9.26871 | 8082 ft | 287 kts | 70° |
| 2026-04-16 11:17 | 50.11880 | 9.29788 | 7970 ft | 286 kts | 70° |
| 2026-04-16 11:17 | 50.12554 | 9.32702 | 7873 ft | 285 kts | 70° |
| 2026-04-16 11:18 | 50.13226 | 9.35618 | 7767 ft | 285 kts | 70° |
| 2026-04-16 11:18 | 50.13900 | 9.38528 | 7667 ft | 285 kts | 70° |
| 2026-04-16 11:18 | 50.14868 | 9.41201 | 7585 ft | 284 kts | 49° |
| 2026-04-16 11:18 | 50.16446 | 9.43013 | 7511 ft | 283 kts | 23° |
| 2026-04-16 11:19 | 50.18349 | 9.43615 | 7436 ft | 280 kts | 357° |
| 2026-04-16 11:19 | 50.20217 | 9.42901 | 7369 ft | 277 kts | 332° |
| 2026-04-16 11:19 | 50.21702 | 9.41052 | 7277 ft | 274 kts | 310° |
| 2026-04-16 11:19 | 50.22731 | 9.38570 | 7214 ft | 272 kts | 290° |
| 2026-04-16 11:20 | 50.23015 | 9.35681 | 7148 ft | 270 kts | 265° |
| 2026-04-16 11:20 | 50.22592 | 9.32835 | 7077 ft | 269 kts | 251° |
| 2026-04-16 11:20 | 50.21922 | 9.30102 | 7004 ft | 269 kts | 246° |
| 2026-04-16 11:20 | 50.21084 | 9.27489 | 6923 ft | 269 kts | 241° |
| 2026-04-16 11:21 | 50.20022 | 9.25101 | 6850 ft | 268 kts | 229° |
| 2026-04-16 11:21 | 50.18728 | 9.23000 | 6775 ft | 268 kts | 225° |
| 2026-04-16 11:21 | 50.17398 | 9.20962 | 6706 ft | 268 kts | 225° |
| 2026-04-16 11:21 | 50.16318 | 9.18669 | 6612 ft | 267 kts | 246° |
| 2026-04-16 11:22 | 50.15860 | 9.15865 | 6549 ft | 267 kts | 264° |
| 2026-04-16 11:22 | 50.15955 | 9.12968 | 6477 ft | 268 kts | 275° |
| 2026-04-16 11:22 | 50.15976 | 9.10067 | 6396 ft | 267 kts | 264° |
| 2026-04-16 11:22 | 50.15598 | 9.07244 | 6315 ft | 263 kts | 252° |
| 2026-04-16 11:23 | 50.15001 | 9.04620 | 6222 ft | 250 kts | 250° |
| 2026-04-16 11:23 | 50.14418 | 9.02168 | 6140 ft | 239 kts | 249° |
| 2026-04-16 11:23 | 50.13843 | 8.99782 | 6049 ft | 228 kts | 249° |
| 2026-04-16 11:23 | 50.13298 | 8.97562 | 5953 ft | 211 kts | 248° |
| 2026-04-16 11:24 | 50.12773 | 8.95451 | 5865 ft | 208 kts | 249° |
| 2026-04-16 11:24 | 50.12255 | 8.93344 | 5780 ft | 207 kts | 249° |
| 2026-04-16 11:24 | 50.11746 | 8.91245 | 5721 ft | 206 kts | 249° |
| 2026-04-16 11:24 | 50.11265 | 8.89229 | 5613 ft | 193 kts | 249° |
| 2026-04-16 11:25 | 50.10812 | 8.87306 | 5509 ft | 183 kts | 249° |
| 2026-04-16 11:25 | 50.10404 | 8.85561 | 5465 ft | 162 kts | 249° |
| 2026-04-16 11:25 | 50.10027 | 8.83943 | 5393 ft | 157 kts | 249° |
| 2026-04-16 11:25 | 50.09650 | 8.82345 | 5259 ft | 157 kts | 249° |
| 2026-04-16 11:26 | 50.09268 | 8.80732 | 4816 ft | 164 kts | 249° |
| 2026-04-16 11:26 | 50.08855 | 8.79016 | 4197 ft | 178 kts | 249° |
| 2026-04-16 11:26 | 50.08408 | 8.77147 | 3589 ft | 189 kts | 249° |
| 2026-04-16 11:26 | 50.07939 | 8.75185 | 2974 ft | 197 kts | 249° |
| 2026-04-16 11:27 | 50.07461 | 8.73181 | 2444 ft | 198 kts | 249° |
| 2026-04-16 11:27 | 50.06994 | 8.71212 | 2110 ft | 188 kts | 249° |
| 2026-04-16 11:27 | 50.06555 | 8.69359 | 1847 ft | 177 kts | 249° |
| 2026-04-16 11:27 | 50.06142 | 8.67619 | 1618 ft | 165 kts | 249° |
| 2026-04-16 11:28 | 50.05758 | 8.66007 | 1398 ft | 153 kts | 249° |
| 2026-04-16 11:28 | 50.05399 | 8.64497 | 1196 ft | 149 kts | 249° |
| 2026-04-16 11:28 | 50.05036 | 8.62969 | 999 ft | 148 kts | 249° |
| 2026-04-16 11:28 | 50.04682 | 8.61483 | 790 ft | 148 kts | 248° |
| 2026-04-16 11:29 | 50.04321 | 8.59968 | 590 ft | 148 kts | 247° |
| 2026-04-16 11:29 | 50.03968 | 8.58491 | 403 ft | 147 kts | 246° |
| 2026-04-16 11:29 | 50.03626 | 8.57050 | 354 ft | 133 kts | 249° |
| 2026-04-16 11:29 | 50.03317 | 8.55765 | 360 ft | 128 kts | 250° |
| 2026-04-16 11:30 | 50.03093 | 8.54823 | 359 ft | 50 kts | 247° |
| 2026-04-16 11:30 | 50.03027 | 8.54708 | 360 ft | 0 kts | 201° |
| 2026-04-16 11:30 | 50.03021 | 8.54704 | 359 ft | 8 kts | 201° |
| 2026-04-16 11:30 | 50.02949 | 8.54733 | 358 ft | 11 kts | 140° |
| 2026-04-16 11:31 | 50.02917 | 8.54840 | 359 ft | 11 kts | 93° |
| 2026-04-16 11:31 | 50.02932 | 8.54961 | 360 ft | 12 kts | 72° |
| 2026-04-16 11:31 | 50.02960 | 8.55090 | 362 ft | 13 kts | 68° |
| 2026-04-16 11:31 | 50.02997 | 8.55226 | 362 ft | 14 kts | 67° |
| 2026-04-16 11:32 | 50.03034 | 8.55380 | 357 ft | 16 kts | 70° |
| 2026-04-16 11:32 | 50.03068 | 8.55546 | 357 ft | 13 kts | 88° |
| 2026-04-16 11:32 | 50.03032 | 8.55630 | 360 ft | 9 kts | 139° |
| 2026-04-16 11:32 | 50.02999 | 8.55667 | 362 ft | 3 kts | 109° |
| 2026-04-16 11:33 | 50.03002 | 8.55677 | 362 ft | 0 kts | 72° |
| 2026-04-16 11:33 | 50.03018 | 8.55708 | 359 ft | 7 kts | 51° |
| 2026-04-16 11:33 | 50.03057 | 8.55820 | 357 ft | 15 kts | 68° |
| 2026-04-16 11:34 | 50.03094 | 8.55973 | 359 ft | 14 kts | 73° |
| 2026-04-16 11:34 | 50.03074 | 8.56067 | 360 ft | 7 kts | 118° |
| 2026-04-16 11:34 | 50.03071 | 8.56138 | 358 ft | 7 kts | 102° |
| 2026-04-16 11:34 | 50.03048 | 8.56209 | 356 ft | 8 kts | 120° |
| 2026-04-16 11:35 | 50.03035 | 8.56294 | 358 ft | 8 kts | 84° |
| 2026-04-16 11:35 | 50.03055 | 8.56385 | 356 ft | 6 kts | 69° |
| 2026-04-16 11:35 | 50.03055 | 8.56386 | 356 ft | 0 kts | 70° |